Terminal Aerodrome Forecast
Issued by NWS State College, PA

Home | Current Version | Previous Version | Text Only | Print | Product List | Glossary On
Versions: 1 2 3 4 5 6 7 8 9 10 11 12 13 14 15 16 17 18 19 20 21 22 23 24 25 26 27 28 29 30 31 32
000
FTUS41 KCTP 282018 AAC
TAFMDT
TAF AMD
KMDT 282018Z 2820/2918 09008KT P6SM BKN035 OVC045
      TEMPO 2820/2821 11010KT 5SM -SHRA OVC025
     FM282100 12008G15KT P6SM BKN025 OVC040
     FM290500 10008G15KT 5SM -SHRA BR OVC030
     FM291100 08017G24KT 4SM -RA BR OVC007=

USA.gov is the U.S. government's official web portal to all federal, state and local government web resources and services.